Time;durP1;ratioP1;P1;durP2;ratioP2;P2;SDS_P1;SDS_P2;PMS_P1;PMS_P2;Temp;Humidity;BMP_temperature;BMP_pressure;BME280_temperature;BME280_humidity;BME280_pressure;Samples;Min_cycle;Max_cycle;Signal;HPM_P1;HPM_P2
2023/01/10 00:01:30;;;;;;;13.88;4.13;;;7.60;99.90;;;;;;5052707;28;20025;-80
2023/01/10 00:03:56;;;;;;;12.88;3.45;;;7.60;99.90;;;;;;5054694;28;20159;-80
2023/01/10 00:06:22;;;;;;;14.35;4.00;;;7.60;99.90;;;;;;5054306;28;20033;-80
2023/01/10 00:08:47;;;;;;;11.18;3.60;;;7.50;99.90;;;;;;5054390;28;20442;-80
2023/01/10 00:13:57;;;;;;;13.32;4.03;;;7.40;99.90;;;;;;5054217;28;20044;-80
2023/01/10 00:16:23;;;;;;;14.38;3.50;;;7.40;99.90;;;;;;5053078;28;20025;-80
2023/01/10 00:18:48;;;;;;;16.52;3.85;;;7.40;99.90;;;;;;5054228;28;20033;-80
2023/01/10 00:21:14;;;;;;;11.20;4.32;;;7.40;99.90;;;;;;5042795;28;20514;-80
2023/01/10 00:23:42;;;;;;;12.85;4.50;;;7.40;99.90;;;;;;5037782;28;20159;-80
2023/01/10 00:26:07;;;;;;;14.23;4.50;;;7.50;99.90;;;;;;5052754;28;20515;-80
2023/01/10 00:28:33;;;;;;;11.35;4.78;;;7.60;99.90;;;;;;5053941;28;20075;-80
2023/01/10 00:31:00;;;;;;;10.77;4.55;;;7.50;99.90;;;;;;5042288;28;20083;-80
2023/01/10 00:33:33;;;;;;;10.82;4.30;;;7.60;99.90;;;;;;5052259;28;20036;-80
2023/01/10 00:36:06;;;;;;;17.10;5.13;;;7.70;99.90;;;;;;5054205;28;20036;-80
2023/01/10 00:38:34;;;;;;;13.93;4.75;;;7.70;99.90;;;;;;5040419;28;20036;-80
2023/01/10 00:41:00;;;;;;;13.77;4.85;;;7.70;99.90;;;;;;5049797;28;20026;-80
2023/01/10 00:46:10;;;;;;;13.70;5.03;;;7.80;99.90;;;;;;5053532;28;20557;-80
2023/01/10 00:48:37;;;;;;;17.63;5.45;;;7.80;99.90;;;;;;5053652;28;20029;-80
2023/01/10 00:51:03;;;;;;;9.43;3.95;;;7.90;99.90;;;;;;5053113;28;20116;-80
2023/01/10 00:53:29;;;;;;;10.65;4.30;;;7.80;99.90;;;;;;5053540;28;20108;-80
2023/01/10 00:55:55;;;;;;;10.82;4.03;;;7.90;99.90;;;;;;5053747;28;20621;-80
2023/01/10 00:58:22;;;;;;;12.07;4.47;;;7.90;99.90;;;;;;5053422;28;20036;-80
2023/01/10 01:00:48;;;;;;;10.70;4.43;;;7.90;99.90;;;;;;5053151;28;20104;-80
2023/01/10 01:03:15;;;;;;;8.70;3.63;;;7.90;99.90;;;;;;5053402;28;20142;-79
2023/01/10 01:05:45;;;;;;;14.18;4.00;;;7.90;99.90;;;;;;5052101;28;20021;-80
2023/01/10 01:08:12;;;;;;;8.95;3.65;;;7.90;99.90;;;;;;5053836;28;20052;-80
2023/01/10 01:10:38;;;;;;;13.57;4.28;;;8.00;99.90;;;;;;5053345;28;20147;-79
2023/01/10 01:13:11;;;;;;;11.25;4.10;;;8.00;99.90;;;;;;5052008;28;20502;-79
2023/01/10 01:15:37;;;;;;;11.82;3.65;;;8.00;99.90;;;;;;5053115;28;20110;-79
2023/01/10 01:18:03;;;;;;;10.88;3.20;;;8.00;99.90;;;;;;5053410;28;20112;-79
2023/01/10 01:20:30;;;;;;;9.27;3.58;;;8.00;99.90;;;;;;5053191;28;20025;-79
2023/01/10 01:22:55;;;;;;;9.57;3.63;;;8.00;99.90;;;;;;5052742;28;20024;-79
2023/01/10 01:25:22;;;;;;;7.80;3.47;;;8.00;99.90;;;;;;5048652;28;20526;-79
2023/01/10 01:27:48;;;;;;;15.40;3.63;;;8.00;99.90;;;;;;5045049;28;20032;-79
2023/01/10 01:30:14;;;;;;;11.32;3.97;;;8.00;99.90;;;;;;5052886;28;20060;-79
2023/01/10 01:32:40;;;;;;;10.07;3.58;;;8.00;99.90;;;;;;5053070;28;20047;-79
2023/01/10 01:35:08;;;;;;;11.00;3.35;;;8.10;99.90;;;;;;5052823;28;20036;-79
2023/01/10 01:37:33;;;;;;;10.85;3.40;;;8.10;99.90;;;;;;5052867;28;20021;-79
2023/01/10 01:39:59;;;;;;;8.23;3.55;;;8.10;99.90;;;;;;5048086;28;20083;-79
2023/01/10 01:42:30;;;;;;;7.10;3.20;;;8.10;99.90;;;;;;5043121;28;20106;-79
2023/01/10 01:45:08;;;;;;;9.32;3.50;;;8.10;99.90;;;;;;5052661;28;20029;-79
2023/01/10 01:47:45;;;;;;;6.22;3.03;;;8.20;99.90;;;;;;5051415;28;20053;-79
2023/01/10 01:50:33;;;;;;;5.55;2.50;;;8.20;99.90;;;;;;5052771;28;20021;-79
2023/01/10 01:53:02;;;;;;;8.45;2.30;;;8.20;99.90;;;;;;5048051;28;20029;-79
2023/01/10 01:55:31;;;;;;;8.27;2.25;;;8.20;99.90;;;;;;5044710;28;20040;-79
2023/01/10 01:58:00;;;;;;;5.15;2.33;;;8.20;99.90;;;;;;5052317;28;20044;-79
2023/01/10 02:00:26;;;;;;;6.38;2.20;;;8.10;99.90;;;;;;5052090;28;20024;-79
2023/01/10 02:02:56;;;;;;;5.30;2.75;;;8.10;99.90;;;;;;5052443;28;20563;-79
2023/01/10 02:05:23;;;;;;;5.25;2.00;;;8.10;99.90;;;;;;5052650;28;20110;-79
2023/01/10 02:07:54;;;;;;;5.65;2.00;;;8.10;99.90;;;;;;5052350;28;20014;-79
2023/01/10 02:10:54;;;;;;;3.92;1.70;;;8.20;99.90;;;;;;5052026;28;20029;-79
2023/01/10 02:13:24;;;;;;;4.03;1.77;;;8.20;99.90;;;;;;5052160;28;20021;-79
2023/01/10 02:15:50;;;;;;;2.80;1.60;;;8.20;99.90;;;;;;5047836;28;20125;-79
2023/01/10 02:18:17;;;;;;;6.25;1.88;;;8.20;99.90;;;;;;5045495;28;20104;-79
2023/01/10 02:20:46;;;;;;;4.88;1.60;;;8.20;99.90;;;;;;5052170;28;20029;-79
2023/01/10 02:23:17;;;;;;;5.63;1.95;;;8.20;99.90;;;;;;5048955;28;20589;-79
2023/01/10 02:25:52;;;;;;;5.43;2.20;;;8.20;99.90;;;;;;5051705;28;20029;-79
2023/01/10 02:28:45;;;;;;;7.45;2.10;;;8.20;99.90;;;;;;5051845;28;20021;-79
2023/01/10 02:31:42;;;;;;;5.72;1.70;;;8.20;99.90;;;;;;5051645;28;20080;-79
2023/01/10 02:34:22;;;;;;;8.68;2.45;;;8.20;99.90;;;;;;5051965;28;20090;-79
2023/01/10 02:37:28;;;;;;;5.50;1.67;;;8.10;99.90;;;;;;5038712;28;20115;-79
2023/01/10 02:40:15;;;;;;;4.82;2.05;;;8.20;99.90;;;;;;5048837;28;20593;-79
2023/01/10 02:43:02;;;;;;;8.50;2.45;;;8.10;99.90;;;;;;5048714;28;20048;-79
2023/01/10 02:45:43;;;;;;;5.03;1.75;;;8.00;99.90;;;;;;5037746;28;20037;-79
2023/01/10 02:48:08;;;;;;;4.95;1.45;;;8.00;99.90;;;;;;5036028;28;20174;-79
2023/01/10 02:50:52;;;;;;;6.05;2.20;;;7.90;99.90;;;;;;5048739;28;20461;-79
2023/01/10 02:53:23;;;;;;;5.57;2.03;;;7.90;99.90;;;;;;5049004;28;20107;-79
2023/01/10 02:56:26;;;;;;;3.95;1.80;;;7.90;99.90;;;;;;5048842;28;20029;-79
2023/01/10 02:59:00;;;;;;;6.57;2.00;;;7.80;99.90;;;;;;5032002;28;20025;-79
2023/01/10 03:01:51;;;;;;;5.55;1.40;;;7.70;99.90;;;;;;5031747;28;20048;-79
2023/01/10 03:04:50;;;;;;;3.53;1.58;;;7.60;99.90;;;;;;5048897;28;20040;-79
2023/01/10 03:07:30;;;;;;;5.25;1.60;;;7.70;99.90;;;;;;5048823;28;20231;-80
2023/01/10 03:10:02;;;;;;;7.75;2.13;;;7.70;99.90;;;;;;5032108;28;20032;-80
2023/01/10 03:12:32;;;;;;;;;;;7.50;99.90;;;;;;5019202;28;20072;-80
2023/01/10 03:14:59;;;;;;;4.90;2.33;;;7.60;99.90;;;;;;5032109;28;19905;-80
2023/01/10 03:17:27;;;;;;;6.47;2.60;;;7.60;99.90;;;;;;5037767;28;20036;-80
2023/01/10 03:19:59;;;;;;;6.82;2.47;;;7.60;99.90;;;;;;5050979;28;20079;-80
2023/01/10 03:22:27;;;;;;;7.10;2.30;;;7.60;99.90;;;;;;5050717;28;20033;-80
2023/01/10 03:24:56;;;;;;;6.88;2.70;;;7.60;99.90;;;;;;5049343;28;20509;-80
2023/01/10 03:27:57;;;;;;;5.72;2.33;;;7.60;99.90;;;;;;5051061;28;20025;-80
2023/01/10 03:30:43;;;;;;;5.07;1.83;;;7.60;99.90;;;;;;5035702;28;20043;-80
2023/01/10 03:33:11;;;;;;;6.93;2.20;;;7.70;99.90;;;;;;5050341;28;20082;-80
2023/01/10 03:35:56;;;;;;;7.53;2.33;;;7.70;99.90;;;;;;5050389;28;20383;-80
2023/01/10 03:39:00;;;;;;;5.47;2.25;;;7.70;99.90;;;;;;5050537;28;20083;-80
2023/01/10 03:41:32;;;;;;;5.85;2.40;;;7.70;99.90;;;;;;5031386;28;20041;-80
2023/01/10 03:47:21;;;;;;;3.67;1.65;;;7.70;99.90;;;;;;5040625;28;20039;-80
2023/01/10 03:49:52;;;;;;;3.22;1.48;;;7.50;99.90;;;;;;5049856;28;20151;-80
2023/01/10 03:52:19;;;;;;;3.30;1.67;;;7.60;99.90;;;;;;5050394;28;20029;-80
2023/01/10 03:54:47;;;;;;;3.47;1.75;;;7.60;99.90;;;;;;5050579;28;20027;-80
2023/01/10 03:57:18;;;;;;;4.50;1.50;;;7.60;99.90;;;;;;5047465;28;20025;-80
2023/01/10 03:59:44;;;;;;;3.90;1.50;;;7.50;99.90;;;;;;5050536;28;20021;-80
2023/01/10 04:02:10;;;;;;;3.63;1.23;;;7.50;99.90;;;;;;5050269;28;20513;-80
2023/01/10 04:04:36;;;;;;;5.00;1.45;;;7.50;99.90;;;;;;5050593;28;20025;-80
2023/01/10 04:07:01;;;;;;;5.05;2.03;;;7.40;99.90;;;;;;5050403;28;20560;-79
2023/01/10 04:09:27;;;;;;;6.13;1.77;;;7.30;99.90;;;;;;5050293;28;20518;-80
2023/01/10 04:11:52;;;;;;;5.40;1.52;;;7.30;99.90;;;;;;5049869;28;20068;-80
2023/01/10 04:14:18;;;;;;;3.10;1.33;;;7.20;99.90;;;;;;5050445;28;20029;-80
2023/01/10 04:16:44;;;;;;;3.92;1.38;;;7.10;99.90;;;;;;5050473;28;20029;-80
2023/01/10 04:19:09;;;;;;;4.60;1.73;;;6.90;99.90;;;;;;5065667;28;20112;-80
2023/01/10 04:21:35;;;;;;;5.88;1.92;;;6.70;99.90;;;;;;5050251;28;20482;-80
2023/01/10 04:24:01;;;;;;;6.57;1.85;;;6.60;99.90;;;;;;5050085;28;20049;-80
2023/01/10 04:26:27;;;;;;;4.13;2.10;;;6.50;99.90;;;;;;5050168;28;20068;-80
2023/01/10 04:28:52;;;;;;;4.40;1.85;;;6.60;99.90;;;;;;5049963;28;20510;-80
2023/01/10 04:31:18;;;;;;;5.20;1.90;;;6.60;99.90;;;;;;5050147;28;20029;-79
2023/01/10 04:33:44;;;;;;;3.65;1.73;;;6.60;99.90;;;;;;5050123;28;20036;-79
2023/01/10 04:36:09;;;;;;;2.55;1.40;;;6.50;99.90;;;;;;5050025;28;20036;-79
2023/01/10 04:38:35;;;;;;;2.67;1.45;;;6.50;99.90;;;;;;5050090;28;20053;-80
2023/01/10 04:41:01;;;;;;;3.45;1.42;;;6.50;99.90;;;;;;5050272;28;20552;-80
2023/01/10 04:43:26;;;;;;;5.53;1.30;;;6.50;99.90;;;;;;5049975;28;20029;-80
2023/01/10 04:45:52;;;;;;;2.92;1.23;;;6.60;99.90;;;;;;5050356;28;20022;-80
2023/01/10 04:48:18;;;;;;;4.25;1.60;;;6.50;99.90;;;;;;5051915;28;20021;-80
2023/01/10 04:50:51;;;;;;;6.32;1.73;;;6.50;99.90;;;;;;5053786;28;20021;-80
2023/01/10 04:53:17;;;;;;;2.88;1.58;;;6.50;99.90;;;;;;5053238;28;20029;-80
2023/01/10 04:55:43;;;;;;;3.03;1.23;;;6.40;99.90;;;;;;5053470;28;20035;-80
2023/01/10 04:58:09;;;;;;;4.97;1.65;;;6.50;99.90;;;;;;5053774;28;20032;-80
2023/01/10 05:00:34;;;;;;;3.90;1.15;;;6.50;99.90;;;;;;5051123;28;20057;-80
2023/01/10 05:03:00;;;;;;;3.40;1.30;;;6.50;99.90;;;;;;5048939;28;20532;-80
2023/01/10 05:05:27;;;;;;;5.07;1.52;;;6.40;99.90;;;;;;5049146;28;20029;-80
2023/01/10 05:07:53;;;;;;;3.97;1.40;;;6.50;99.90;;;;;;5053324;28;20017;-80
2023/01/10 05:10:18;;;;;;;2.25;1.25;;;6.50;99.90;;;;;;5053339;28;20029;-80
2023/01/10 05:12:45;;;;;;;1.45;1.20;;;6.50;99.90;;;;;;5052949;28;20048;-80
2023/01/10 05:15:12;;;;;;;3.35;1.30;;;6.50;99.90;;;;;;5050785;28;20110;-80
2023/01/10 05:17:38;;;;;;;3.28;1.30;;;6.50;99.90;;;;;;5053444;28;20028;-80
2023/01/10 05:20:04;;;;;;;3.30;1.02;;;6.50;99.90;;;;;;5053039;28;20445;-80
2023/01/10 05:22:30;;;;;;;2.47;1.23;;;6.60;99.90;;;;;;5047684;28;20025;-80
2023/01/10 05:24:55;;;;;;;3.33;1.13;;;6.60;99.90;;;;;;5049189;28;20055;-80
2023/01/10 05:27:21;;;;;;;2.25;1.35;;;6.60;99.90;;;;;;5051450;28;20021;-80
2023/01/10 05:29:47;;;;;;;4.10;1.40;;;6.60;99.90;;;;;;5052649;28;20053;-80
2023/01/10 05:32:13;;;;;;;2.45;1.30;;;6.60;99.90;;;;;;5052964;28;20026;-80
2023/01/10 05:34:38;;;;;;;3.08;1.77;;;6.50;99.90;;;;;;5052956;28;20033;-80
2023/01/10 05:37:04;;;;;;;3.97;1.60;;;6.40;99.90;;;;;;5052515;28;20029;-80
2023/01/10 05:39:30;;;;;;;4.32;1.63;;;6.40;99.90;;;;;;5052866;28;20515;-80
2023/01/10 05:41:55;;;;;;;4.22;1.38;;;6.40;99.90;;;;;;5052721;28;20025;-80
2023/01/10 05:44:21;;;;;;;3.13;1.23;;;6.40;99.90;;;;;;5050283;28;20034;-80
2023/01/10 05:46:47;;;;;;;2.40;1.35;;;6.40;99.90;;;;;;5052957;28;20100;-80
2023/01/10 05:49:12;;;;;;;2.92;1.13;;;6.40;99.90;;;;;;5052031;28;20036;-80
2023/01/10 05:51:38;;;;;;;6.07;2.17;;;6.40;99.90;;;;;;5052639;28;20028;-80
2023/01/10 05:54:04;;;;;;;2.22;1.13;;;6.50;99.90;;;;;;5052333;28;20510;-80
2023/01/10 05:56:30;;;;;;;4.07;1.92;;;6.50;99.90;;;;;;5052385;28;20167;-80
2023/01/10 05:58:56;;;;;;;3.65;1.27;;;6.50;99.90;;;;;;5051448;28;20518;-80
2023/01/10 06:01:21;;;;;;;3.08;1.40;;;6.60;99.90;;;;;;5050383;28;20029;-80
2023/01/10 06:03:47;;;;;;;4.78;1.30;;;6.60;99.90;;;;;;5052233;28;20559;-80
2023/01/10 06:06:13;;;;;;;3.90;1.35;;;6.60;99.90;;;;;;5052135;28;20040;-80
2023/01/10 06:08:39;;;;;;;4.10;1.40;;;6.70;99.90;;;;;;5052293;28;20023;-80
2023/01/10 06:11:05;;;;;;;3.67;1.50;;;6.70;99.90;;;;;;5052180;28;20662;-80
2023/01/10 06:13:32;;;;;;;2.25;1.40;;;6.70;99.90;;;;;;5050403;28;20029;-80
2023/01/10 06:15:58;;;;;;;2.75;1.45;;;6.70;99.90;;;;;;5047470;28;20498;-80
2023/01/10 06:18:24;;;;;;;4.07;1.40;;;6.70;99.90;;;;;;5047290;28;20033;-80
2023/01/10 06:20:49;;;;;;;4.13;1.30;;;6.60;99.90;;;;;;5051814;28;20025;-80
2023/01/10 06:23:15;;;;;;;4.75;1.70;;;6.70;99.90;;;;;;5051831;28;20410;-80
2023/01/10 06:25:41;;;;;;;4.47;1.50;;;6.70;99.90;;;;;;5051652;28;20029;-80
2023/01/10 06:28:11;;;;;;;3.90;1.40;;;6.70;99.90;;;;;;5050627;28;20029;-80
2023/01/10 06:30:40;;;;;;;6.80;1.63;;;6.70;99.90;;;;;;5050489;28;20053;-80
2023/01/10 06:33:08;;;;;;;1.80;1.27;;;6.70;99.90;;;;;;5038476;28;20505;-80
2023/01/10 06:35:34;;;;;;;3.03;1.30;;;6.70;99.90;;;;;;5051663;28;20056;-80
2023/01/10 06:38:00;;;;;;;1.52;1.20;;;6.70;99.90;;;;;;5052034;28;20040;-80
2023/01/10 06:40:26;;;;;;;4.45;1.77;;;6.70;99.90;;;;;;5051461;28;20025;-80
2023/01/10 06:42:52;;;;;;;3.13;1.48;;;6.60;99.90;;;;;;5050459;28;20078;-80
2023/01/10 06:45:18;;;;;;;2.08;1.35;;;6.70;99.90;;;;;;5049949;28;20025;-80
2023/01/10 06:47:44;;;;;;;4.97;1.33;;;6.70;99.90;;;;;;5051509;28;20518;-80
2023/01/10 06:50:11;;;;;;;3.65;1.80;;;6.70;99.90;;;;;;5050057;28;20025;-80
2023/01/10 06:52:37;;;;;;;3.80;1.45;;;6.70;99.90;;;;;;5048318;28;20095;-80
2023/01/10 06:55:06;;;;;;;3.30;1.48;;;6.70;99.90;;;;;;5041363;28;20020;-80
2023/01/10 06:57:37;;;;;;;4.15;1.38;;;6.70;99.90;;;;;;5051192;28;20037;-80
2023/01/10 07:00:05;;;;;;;4.60;1.50;;;6.70;99.90;;;;;;5050031;28;20060;-80
2023/01/10 07:02:31;;;;;;;2.60;1.10;;;6.70;99.90;;;;;;5050718;28;20291;-80
2023/01/10 07:04:57;;;;;;;3.10;1.30;;;6.70;99.90;;;;;;5049835;28;20025;-80
2023/01/10 07:07:22;;;;;;;2.67;1.23;;;6.70;99.90;;;;;;5046878;28;20025;-80
2023/01/10 07:09:48;;;;;;;2.72;1.60;;;6.80;99.90;;;;;;5040916;28;20116;-80
2023/01/10 07:12:14;;;;;;;4.38;1.73;;;6.70;99.90;;;;;;5050591;28;20091;-80
2023/01/10 07:14:39;;;;;;;5.53;1.90;;;6.70;99.90;;;;;;5046506;28;20021;-80
2023/01/10 07:17:05;;;;;;;4.95;2.63;;;6.70;99.90;;;;;;5048057;28;20028;-80
2023/01/10 07:19:31;;;;;;;4.55;2.13;;;6.70;99.90;;;;;;5039515;28;20060;-80
2023/01/10 07:21:56;;;;;;;5.13;2.70;;;6.70;99.90;;;;;;5047865;28;20571;-80
2023/01/10 07:24:22;;;;;;;6.55;2.45;;;6.70;99.90;;;;;;5047749;28;20025;-80
2023/01/10 07:26:48;;;;;;;4.13;2.03;;;6.70;99.90;;;;;;5046161;28;20438;-80
2023/01/10 07:29:13;;;;;;;3.30;1.80;;;6.70;99.90;;;;;;5047451;28;20116;-80
2023/01/10 07:31:39;;;;;;;6.13;2.10;;;6.70;99.90;;;;;;5048765;28;20020;-80
2023/01/10 07:34:05;;;;;;;3.70;1.50;;;6.70;99.90;;;;;;5065687;28;20029;-80
2023/01/10 07:36:30;;;;;;;4.30;1.95;;;6.70;99.90;;;;;;5049895;28;20032;-80
2023/01/10 07:38:57;;;;;;;6.72;2.47;;;6.80;99.90;;;;;;5045321;28;20392;-79
2023/01/10 07:41:23;;;;;;;3.97;1.95;;;6.80;99.90;;;;;;5046721;28;20032;-80
2023/01/10 07:43:48;;;;;;;2.75;1.75;;;6.80;99.90;;;;;;5047592;28;20447;-80
2023/01/10 07:46:14;;;;;;;2.53;1.42;;;6.80;99.90;;;;;;5046773;28;20029;-80
2023/01/10 07:48:40;;;;;;;3.45;1.60;;;6.80;99.90;;;;;;5048071;28;20027;-80
2023/01/10 07:51:06;;;;;;;2.85;1.60;;;6.90;99.90;;;;;;5046071;28;20013;-80
2023/01/10 07:53:32;;;;;;;2.40;1.30;;;6.90;99.90;;;;;;5049120;28;20104;-80
2023/01/10 07:55:59;;;;;;;3.63;1.77;;;6.90;99.90;;;;;;5030455;28;20057;-80
2023/01/10 07:58:25;;;;;;;3.67;1.88;;;6.80;99.90;;;;;;5041519;28;20025;-81
2023/01/10 08:00:51;;;;;;;3.75;1.50;;;6.90;99.90;;;;;;5043540;28;20026;-81
2023/01/10 08:03:17;;;;;;;2.55;1.67;;;6.80;99.90;;;;;;5041283;28;20021;-81
2023/01/10 08:05:43;;;;;;;2.60;1.50;;;6.90;99.90;;;;;;5049663;28;20387;-81
2023/01/10 08:08:11;;;;;;;3.33;1.70;;;7.00;99.90;;;;;;5050230;28;20055;-81
2023/01/10 08:10:38;;;;;;;2.85;1.52;;;7.00;99.90;;;;;;5044531;28;20033;-80
2023/01/10 08:13:05;;;;;;;3.45;1.63;;;7.10;99.90;;;;;;5040756;28;20109;-80
2023/01/10 08:15:31;;;;;;;2.85;1.58;;;7.10;99.90;;;;;;5047277;28;20029;-80
2023/01/10 08:18:00;;;;;;;2.67;1.70;;;7.10;99.90;;;;;;5049617;28;20376;-81
2023/01/10 08:20:27;;;;;;;5.15;1.50;;;7.20;99.90;;;;;;5044259;28;20025;-80
2023/01/10 08:22:55;;;;;;;2.92;1.90;;;7.20;99.90;;;;;;5042873;28;20025;-79
2023/01/10 08:25:21;;;;;;;2.95;1.83;;;7.20;99.90;;;;;;5049181;28;20025;-80
2023/01/10 08:27:46;;;;;;;2.97;1.90;;;7.30;99.90;;;;;;5047224;28;20510;-79
2023/01/10 08:30:12;;;;;;;4.95;2.53;;;7.30;99.90;;;;;;5050428;28;20049;-79
2023/01/10 08:32:38;;;;;;;4.93;2.05;;;7.30;99.90;;;;;;5051521;28;20029;-79
2023/01/10 08:35:05;;;;;;;4.65;2.50;;;7.40;99.90;;;;;;5049566;28;20270;-79
2023/01/10 08:37:30;;;;;;;6.57;2.15;;;7.40;99.90;;;;;;5052660;28;20029;-80
2023/01/10 08:39:56;;;;;;;4.82;1.88;;;7.50;99.90;;;;;;5053069;28;20070;-79
2023/01/10 08:42:22;;;;;;;2.83;2.08;;;7.60;99.90;;;;;;5048048;28;20027;-79
2023/01/10 08:44:47;;;;;;;5.53;2.38;;;7.70;99.90;;;;;;5051184;28;20544;-79
2023/01/10 08:47:13;;;;;;;6.13;2.35;;;7.80;99.90;;;;;;5053301;28;20021;-79
2023/01/10 08:49:39;;;;;;;4.63;2.30;;;7.80;99.90;;;;;;5049908;28;20026;-79
2023/01/10 08:52:05;;;;;;;4.47;2.33;;;7.90;99.90;;;;;;5052689;28;20517;-79
2023/01/10 08:54:32;;;;;;;2.97;1.92;;;8.00;99.90;;;;;;5052485;28;20017;-79
2023/01/10 08:56:58;;;;;;;3.67;1.95;;;8.10;99.90;;;;;;5052932;28;20036;-79
2023/01/10 08:59:23;;;;;;;2.45;2.03;;;8.20;99.90;;;;;;5052000;28;20100;-79
2023/01/10 09:01:49;;;;;;;4.57;2.13;;;8.20;99.90;;;;;;5052656;28;20104;-79
2023/01/10 09:04:16;;;;;;;5.50;1.95;;;8.30;99.90;;;;;;5051255;28;20501;-79
2023/01/10 09:06:41;;;;;;;4.30;2.20;;;8.40;99.90;;;;;;5047616;28;20068;-80
2023/01/10 09:09:08;;;;;;;6.47;2.60;;;8.50;99.90;;;;;;5051995;28;20025;-79
2023/01/10 09:11:34;;;;;;;3.88;2.20;;;9.50;99.90;;;;;;5052027;28;20033;-80
2023/01/10 09:14:00;;;;;;;4.07;2.30;;;11.80;99.90;;;;;;5052196;28;20029;-80
2023/01/10 09:16:25;;;;;;;4.95;2.30;;;12.10;99.90;;;;;;5051938;28;20029;-80
2023/01/10 09:18:51;;;;;;;4.88;2.67;;;12.10;99.90;;;;;;5047956;28;20507;-80
2023/01/10 09:21:17;;;;;;;4.97;2.13;;;13.80;99.90;;;;;;5043778;28;20025;-80
2023/01/10 09:23:43;;;;;;;3.65;2.03;;;15.00;99.90;;;;;;5052079;28;20372;-82
2023/01/10 09:26:09;;;;;;;4.15;2.22;;;15.00;99.90;;;;;;5049923;28;20502;-81
2023/01/10 09:28:34;;;;;;;4.93;2.22;;;14.20;99.90;;;;;;5039694;28;20120;-80
2023/01/10 09:31:03;;;;;;;5.10;2.10;;;12.40;99.90;;;;;;5044882;28;20116;-81
2023/01/10 09:33:30;;;;;;;4.00;2.35;;;11.30;99.90;;;;;;5050362;28;20045;-81
2023/01/10 09:35:59;;;;;;;4.50;2.33;;;10.80;99.90;;;;;;5051766;28;20030;-83
2023/01/10 09:38:25;;;;;;;3.67;1.92;;;10.40;99.90;;;;;;5052014;28;20506;-80
2023/01/10 09:41:17;;;;;;;4.97;2.70;;;10.20;99.90;;;;;;5052024;28;20025;-81
2023/01/10 09:43:52;;;;;;;5.60;2.60;;;10.20;99.90;;;;;;5051372;28;20094;-81
2023/01/10 09:46:39;;;;;;;6.20;4.75;;;10.30;99.90;;;;;;5034095;28;20034;-81
2023/01/10 09:49:25;;;;;;;9.98;4.65;;;10.40;99.90;;;;;;5044867;28;20041;-81
2023/01/10 09:51:52;;;;;;;8.18;3.97;;;10.40;99.90;;;;;;5050258;28;20390;-81
2023/01/10 09:54:41;;;;;;;7.65;3.70;;;10.40;99.90;;;;;;5048396;28;20053;-81
2023/01/10 09:57:19;;;;;;;6.00;3.40;;;10.50;99.90;;;;;;5045211;28;20070;-81
2023/01/10 09:59:50;;;;;;;7.10;4.47;;;10.40;99.90;;;;;;5051115;28;20166;-81
2023/01/10 10:02:37;;;;;;;10.20;6.15;;;10.50;99.90;;;;;;5038299;28;20021;-81
2023/01/10 10:05:09;;;;;;;7.60;5.80;;;10.70;99.90;;;;;;5043849;28;20082;-80
2023/01/10 10:07:35;;;;;;;8.38;5.05;;;10.90;99.90;;;;;;5061879;28;20179;-80
2023/01/10 10:10:03;;;;;;;6.38;4.68;;;10.80;99.90;;;;;;5050707;28;20021;-80
2023/01/10 10:12:45;;;;;;;7.85;5.07;;;10.90;99.90;;;;;;5045160;28;20025;-80
2023/01/10 10:15:17;;;;;;;8.20;4.00;;;11.10;99.90;;;;;;5050703;28;20029;-80
2023/01/10 10:18:17;;;;;;;5.25;3.63;;;11.00;99.90;;;;;;5050506;28;20067;-81
2023/01/10 10:20:57;;;;;;;6.38;3.67;;;10.80;99.90;;;;;;4977590;28;20057;-80
2023/01/10 10:23:34;;;;;;;6.97;3.55;;;10.90;99.90;;;;;;4989411;28;20042;-80
2023/01/10 10:26:21;;;;;;;7.10;3.65;;;10.90;99.90;;;;;;4988608;28;20038;-80
2023/01/10 10:29:06;;;;;;;7.93;3.75;;;10.90;99.90;;;;;;4972331;28;20054;-81
2023/01/10 10:31:55;;;;;;;7.32;3.20;;;10.90;99.90;;;;;;4989611;28;20085;-80
2023/01/10 10:34:53;;;;;;;6.88;3.10;;;11.00;99.90;;;;;;4977309;28;20284;-80
2023/01/10 10:37:31;;;;;;;5.75;3.25;;;11.10;99.90;;;;;;4957371;28;20038;-80
2023/01/10 10:40:04;;;;;;;9.52;3.47;;;11.10;99.90;;;;;;4982392;28;20114;-80
2023/01/10 10:42:38;;;;;;;7.50;3.65;;;11.20;99.90;;;;;;4969566;28;20078;-80
2023/01/10 10:45:39;;;;;;;6.82;3.42;;;11.30;99.90;;;;;;4969706;28;20027;-80
2023/01/10 10:48:32;;;;;;;8.82;3.40;;;11.30;99.90;;;;;;4974756;28;20049;-80
2023/01/10 10:51:06;;;;;;;5.65;2.88;;;11.50;99.90;;;;;;4987609;28;20128;-80
2023/01/10 10:53:33;;;;;;;7.35;3.08;;;11.50;99.90;;;;;;4989263;28;20105;-80
2023/01/10 10:56:01;;;;;;;5.07;3.20;;;11.60;99.90;;;;;;5012074;28;20061;-80
2023/01/10 10:58:29;;;;;;;6.97;3.55;;;11.70;99.90;;;;;;5050194;28;20048;-79
2023/01/10 11:00:56;;;;;;;4.18;3.15;;;11.80;99.90;;;;;;5050170;28;20047;-79
2023/01/10 11:03:47;;;;;;;9.88;3.92;;;11.90;99.90;;;;;;5050817;28;20111;-80
2023/01/10 11:06:15;;;;;;;9.55;3.28;;;11.80;99.90;;;;;;5050668;28;20146;-80
2023/01/10 11:08:44;;;;;;;5.07;2.75;;;11.80;99.90;;;;;;5046240;28;20359;-79
2023/01/10 11:11:15;;;;;;;7.03;3.03;;;11.80;99.90;;;;;;5050113;28;20021;-79
2023/01/10 11:13:46;;;;;;;;;;;12.00;99.90;;;;;;5050683;28;20025;-79
2023/01/10 11:16:28;;;;;;;5.45;2.90;;;12.00;99.90;;;;;;5045590;28;19936;-79
2023/01/10 11:19:09;;;;;;;6.47;3.13;;;12.00;99.90;;;;;;5042126;28;20029;-79
2023/01/10 11:21:38;;;;;;;5.65;2.65;;;12.00;99.90;;;;;;5045113;28;20376;-80
2023/01/10 11:24:04;;;;;;;3.38;2.50;;;12.00;99.90;;;;;;5050217;28;20029;-79
2023/01/10 11:26:36;;;;;;;6.85;3.70;;;12.10;99.90;;;;;;5047125;28;20086;-79
2023/01/10 11:29:16;;;;;;;6.25;2.80;;;12.20;99.90;;;;;;5040443;28;20037;-79
2023/01/10 11:31:43;;;;;;;4.70;2.80;;;12.10;99.90;;;;;;5045798;28;20032;-79
2023/01/10 11:34:39;;;;;;;10.38;4.85;;;12.40;99.90;;;;;;5049031;28;20068;-79
2023/01/10 11:37:18;;;;;;;11.18;5.22;;;12.70;99.90;;;;;;5043660;28;20526;-79
2023/01/10 11:39:44;;;;;;;11.60;5.75;;;12.70;99.90;;;;;;5049414;28;20120;-79
2023/01/10 11:42:30;;;;;;;11.60;6.55;;;12.60;99.90;;;;;;5049712;28;20146;-79
2023/01/10 11:45:16;;;;;;;8.60;5.57;;;12.60;99.90;;;;;;5045350;28;20113;-79
2023/01/10 11:48:20;;;;;;;10.88;4.78;;;12.80;99.90;;;;;;5044518;28;20110;-80
2023/01/10 11:50:49;;;;;;;7.82;4.20;;;13.10;99.90;;;;;;5049011;28;20024;-80
2023/01/10 11:53:37;;;;;;;6.50;3.95;;;13.30;99.90;;;;;;5044973;28;20025;-80
2023/01/10 11:56:04;;;;;;;6.78;2.97;;;13.30;99.90;;;;;;5033545;28;20029;-79
2023/01/10 11:58:33;;;;;;;5.10;2.72;;;13.50;99.90;;;;;;5047844;28;20570;-79
2023/01/10 12:00:59;;;;;;;3.42;2.15;;;13.40;99.90;;;;;;5045646;28;20021;-79
2023/01/10 12:03:29;;;;;;;7.35;2.92;;;13.50;99.90;;;;;;5047445;28;20057;-79
2023/01/10 12:06:06;;;;;;;8.15;2.85;;;13.60;99.90;;;;;;5043582;28;20037;-79
2023/01/10 12:08:43;;;;;;;7.40;3.00;;;13.50;99.90;;;;;;5045557;28;20510;-79
2023/01/10 12:11:31;;;;;;;7.38;2.70;;;13.60;99.90;;;;;;5048350;28;20033;-79
2023/01/10 12:13:59;;;;;;;4.50;2.03;;;13.40;99.90;;;;;;5047191;28;20510;-80
2023/01/10 12:16:29;;;;;;;5.30;2.58;;;13.10;99.90;;;;;;5041555;28;20036;-80
2023/01/10 12:19:10;;;;;;;12.70;6.07;;;13.00;99.90;;;;;;5043979;28;20057;-80
2023/01/10 12:21:41;;;;;;;10.23;5.68;;;13.30;99.90;;;;;;5043833;28;20086;-80
2023/01/10 12:24:29;;;;;;;8.05;5.15;;;13.30;99.90;;;;;;5049533;28;20021;-80
2023/01/10 12:26:56;;;;;;;6.90;4.88;;;13.00;99.90;;;;;;5049819;28;20490;-80
2023/01/10 12:29:25;;;;;;;7.45;4.15;;;12.70;99.90;;;;;;5049296;28;20120;-80
2023/01/10 12:31:53;;;;;;;6.38;3.70;;;12.60;99.90;;;;;;5048200;28;20029;-80
2023/01/10 12:34:22;;;;;;;4.40;3.10;;;12.90;99.90;;;;;;5049330;28;20514;-79
2023/01/10 12:36:57;;;;;;;6.38;3.10;;;12.80;99.90;;;;;;5049509;28;20032;-80
2023/01/10 12:39:35;;;;;;;4.75;2.92;;;13.00;99.90;;;;;;5049571;28;20032;-80
2023/01/10 12:45:07;;;;;;;6.20;2.80;;;12.90;99.90;;;;;;5049517;28;20044;-79
2023/01/10 12:47:59;;;;;;;4.30;2.90;;;12.50;99.90;;;;;;5043534;28;20082;-79
2023/01/10 12:50:34;;;;;;;7.82;4.32;;;12.40;99.90;;;;;;5048842;28;20096;-80
2023/01/10 12:53:19;;;;;;;5.90;3.53;;;12.60;99.90;;;;;;5035963;28;20033;-79
2023/01/10 12:55:46;;;;;;;6.70;3.85;;;12.50;99.90;;;;;;5058407;28;20021;-79
2023/01/10 12:58:16;;;;;;;5.03;3.38;;;12.60;99.90;;;;;;5029238;28;20112;-79
2023/01/10 13:00:45;;;;;;;4.93;2.97;;;12.60;99.90;;;;;;5044634;28;20017;-80
2023/01/10 13:03:18;;;;;;;6.63;3.45;;;12.60;99.90;;;;;;5048885;28;20024;-79
2023/01/10 13:05:47;;;;;;;7.68;4.07;;;12.60;99.90;;;;;;5048558;28;20275;-79
2023/01/10 13:08:16;;;;;;;8.38;3.50;;;13.00;99.90;;;;;;5044656;28;20025;-80
2023/01/10 13:10:48;;;;;;;8.63;2.83;;;13.10;99.90;;;;;;5050910;28;20029;-79
2023/01/10 13:13:35;;;;;;;7.50;2.80;;;13.10;99.90;;;;;;5050528;28;20032;-79
2023/01/10 13:16:19;;;;;;;4.93;2.35;;;13.10;99.90;;;;;;5041671;28;20025;-79
2023/01/10 13:19:10;;;;;;;5.28;2.50;;;12.70;99.90;;;;;;5047342;28;20021;-79
2023/01/10 13:21:41;;;;;;;4.38;2.15;;;12.50;99.90;;;;;;5045583;28;20128;-79
2023/01/10 13:24:25;;;;;;;3.33;2.08;;;12.50;99.90;;;;;;5049686;28;20028;-79